sensor_id;sensor_type;location;lat;lon;timestamp;pressure;altitude;pressure_sealevel;temperature;humidity
64739;BME280;51175;51.186;0.276;2023-02-02T00:00:14;102260.81;;;11.17;69.11
64739;BME280;51175;51.186;0.276;2023-02-02T00:00:45;102260.00;;;11.16;69.15
64739;BME280;51175;51.186;0.276;2023-02-02T00:01:16;102263.44;;;11.17;68.97
64739;BME280;51175;51.186;0.276;2023-02-02T00:01:49;102260.81;;;11.17;69.04
64739;BME280;51175;51.186;0.276;2023-02-02T00:02:20;102263.44;;;11.17;69.11
64739;BME280;51175;51.186;0.276;2023-02-02T00:02:51;102255.53;;;11.17;69.08
64739;BME280;51175;51.186;0.276;2023-02-02T00:03:21;102257.34;;;11.16;69.09
64739;BME280;51175;51.186;0.276;2023-02-02T00:03:52;102256.56;;;11.16;69.01
64739;BME280;51175;51.186;0.276;2023-02-02T00:04:28;102258.16;;;11.17;69.25
64739;BME280;51175;51.186;0.276;2023-02-02T00:04:59;102266.91;;;11.17;69.20
64739;BME280;51175;51.186;0.276;2023-02-02T00:05:29;102256.56;;;11.16;69.13
64739;BME280;51175;51.186;0.276;2023-02-02T00:06:00;102260.00;;;11.16;69.09
64739;BME280;51175;51.186;0.276;2023-02-02T00:06:31;102262.63;;;11.16;69.15
64739;BME280;51175;51.186;0.276;2023-02-02T00:07:02;102266.09;;;11.17;69.08
64739;BME280;51175;51.186;0.276;2023-02-02T00:07:34;102263.44;;;11.17;69.04
64739;BME280;51175;51.186;0.276;2023-02-02T00:08:04;102272.22;;;11.17;69.09
64739;BME280;51175;51.186;0.276;2023-02-02T00:08:35;102272.22;;;11.17;69.10
64739;BME280;51175;51.186;0.276;2023-02-02T00:09:14;102275.63;;;11.18;68.97
64739;BME280;51175;51.186;0.276;2023-02-02T00:09:44;102272.22;;;11.17;68.85
64739;BME280;51175;51.186;0.276;2023-02-02T00:10:15;102269.56;;;11.17;68.95
64739;BME280;51175;51.186;0.276;2023-02-02T00:10:46;102275.84;;;11.16;69.01
64739;BME280;51175;51.186;0.276;2023-02-02T00:11:17;102272.22;;;11.17;69.22
64739;BME280;51175;51.186;0.276;2023-02-02T00:11:48;102272.22;;;11.17;68.89
64739;BME280;51175;51.186;0.276;2023-02-02T00:12:20;102270.56;;;11.16;69.14
64739;BME280;51175;51.186;0.276;2023-02-02T00:12:50;102272.22;;;11.17;69.09
64739;BME280;51175;51.186;0.276;2023-02-02T00:13:20;102270.56;;;11.16;68.92
64739;BME280;51175;51.186;0.276;2023-02-02T00:13:51;102274.84;;;11.17;69.07
64739;BME280;51175;51.186;0.276;2023-02-02T00:14:22;102269.56;;;11.17;69.16
64739;BME280;51175;51.186;0.276;2023-02-02T00:14:52;102272.22;;;11.17;68.94
64739;BME280;51175;51.186;0.276;2023-02-02T00:15:23;102266.91;;;11.17;69.07
64739;BME280;51175;51.186;0.276;2023-02-02T00:15:54;102270.34;;;11.18;69.07
64739;BME280;51175;51.186;0.276;2023-02-02T00:16:56;102273.00;;;11.18;69.01
64739;BME280;51175;51.186;0.276;2023-02-02T00:17:27;102268.53;;;11.18;69.01
64739;BME280;51175;51.186;0.276;2023-02-02T00:17:57;102264.28;;;11.17;69.17
64739;BME280;51175;51.186;0.276;2023-02-02T00:18:27;102268.75;;;11.17;69.06
64739;BME280;51175;51.186;0.276;2023-02-02T00:19:00;102266.91;;;11.17;68.94
64739;BME280;51175;51.186;0.276;2023-02-02T00:19:31;102274.84;;;11.17;69.02
64739;BME280;51175;51.186;0.276;2023-02-02T00:20:02;102272.22;;;11.17;69.07
64739;BME280;51175;51.186;0.276;2023-02-02T00:20:33;102273.00;;;11.18;69.07
64739;BME280;51175;51.186;0.276;2023-02-02T00:21:06;102274.84;;;11.17;69.19
64739;BME280;51175;51.186;0.276;2023-02-02T00:21:37;102267.72;;;11.18;69.10
64739;BME280;51175;51.186;0.276;2023-02-02T00:22:07;102275.63;;;11.18;69.10
64739;BME280;51175;51.186;0.276;2023-02-02T00:22:37;102270.34;;;11.18;68.96
64739;BME280;51175;51.186;0.276;2023-02-02T00:23:08;102267.72;;;11.18;69.08
64739;BME280;51175;51.186;0.276;2023-02-02T00:23:38;102269.56;;;11.17;69.09
64739;BME280;51175;51.186;0.276;2023-02-02T00:24:11;102269.56;;;11.17;69.13
64739;BME280;51175;51.186;0.276;2023-02-02T00:24:42;102266.91;;;11.17;69.00
64739;BME280;51175;51.186;0.276;2023-02-02T00:25:13;102266.09;;;11.17;69.00
64739;BME280;51175;51.186;0.276;2023-02-02T00:25:43;102269.56;;;11.17;68.98
64739;BME280;51175;51.186;0.276;2023-02-02T00:26:14;102267.72;;;11.18;68.99
64739;BME280;51175;51.186;0.276;2023-02-02T00:26:46;102265.06;;;11.18;69.01
64739;BME280;51175;51.186;0.276;2023-02-02T00:27:17;102267.72;;;11.18;69.19
64739;BME280;51175;51.186;0.276;2023-02-02T00:27:48;102264.28;;;11.17;69.10
64739;BME280;51175;51.186;0.276;2023-02-02T00:28:18;102270.34;;;11.18;69.08
64739;BME280;51175;51.186;0.276;2023-02-02T00:28:48;102269.56;;;11.17;68.98
64739;BME280;51175;51.186;0.276;2023-02-02T00:29:24;102264.28;;;11.17;69.13
64739;BME280;51175;51.186;0.276;2023-02-02T00:29:55;102270.34;;;11.18;68.97
64739;BME280;51175;51.186;0.276;2023-02-02T00:30:26;102273.00;;;11.18;69.12
64739;BME280;51175;51.186;0.276;2023-02-02T00:30:56;102267.72;;;11.18;68.99
64739;BME280;51175;51.186;0.276;2023-02-02T00:31:27;102268.53;;;11.18;68.98
64739;BME280;51175;51.186;0.276;2023-02-02T00:31:57;102271.16;;;11.18;68.97
64739;BME280;51175;51.186;0.276;2023-02-02T00:32:28;102271.16;;;11.18;69.07
64739;BME280;51175;51.186;0.276;2023-02-02T00:32:58;102278.28;;;11.18;68.98
64739;BME280;51175;51.186;0.276;2023-02-02T00:33:29;102273.00;;;11.18;69.18
64739;BME280;51175;51.186;0.276;2023-02-02T00:33:59;102273.00;;;11.18;69.11
64739;BME280;51175;51.186;0.276;2023-02-02T00:34:30;102270.34;;;11.18;69.00
64739;BME280;51175;51.186;0.276;2023-02-02T00:35:00;102278.28;;;11.18;69.09
64739;BME280;51175;51.186;0.276;2023-02-02T00:35:30;102274.84;;;11.17;69.07
64739;BME280;51175;51.186;0.276;2023-02-02T00:36:01;102273.81;;;11.18;69.19
64739;BME280;51175;51.186;0.276;2023-02-02T00:36:32;102283.56;;;11.18;69.01
64739;BME280;51175;51.186;0.276;2023-02-02T00:37:02;102284.41;;;11.18;69.18
64739;BME280;51175;51.186;0.276;2023-02-02T00:37:32;102277.28;;;11.19;69.17
64739;BME280;51175;51.186;0.276;2023-02-02T00:38:03;102282.56;;;11.19;69.20
64739;BME280;51175;51.186;0.276;2023-02-02T00:38:33;102289.69;;;11.18;68.95
64739;BME280;51175;51.186;0.276;2023-02-02T00:39:04;102279.09;;;11.18;69.10
64739;BME280;51175;51.186;0.276;2023-02-02T00:39:34;102276.47;;;11.18;69.00
64739;BME280;51175;51.186;0.276;2023-02-02T00:40:05;102279.91;;;11.19;69.13
64739;BME280;51175;51.186;0.276;2023-02-02T00:40:36;102284.41;;;11.18;69.22
64739;BME280;51175;51.186;0.276;2023-02-02T00:41:07;102279.09;;;11.18;69.06
64739;BME280;51175;51.186;0.276;2023-02-02T00:41:37;102283.56;;;11.18;69.16
64739;BME280;51175;51.186;0.276;2023-02-02T00:42:10;102279.09;;;11.18;69.22
64739;BME280;51175;51.186;0.276;2023-02-02T00:42:40;102283.34;;;11.20;68.88
64739;BME280;51175;51.186;0.276;2023-02-02T00:43:12;102286.81;;;11.20;69.03
64739;BME280;51175;51.186;0.276;2023-02-02T00:43:43;102283.34;;;11.20;69.04
64739;BME280;51175;51.186;0.276;2023-02-02T00:44:13;102286.00;;;11.20;69.33
64739;BME280;51175;51.186;0.276;2023-02-02T00:45:03;102281.75;;;11.18;69.03
64739;BME280;51175;51.186;0.276;2023-02-02T00:45:46;102284.41;;;11.18;69.00
64739;BME280;51175;51.186;0.276;2023-02-02T00:46:17;102283.56;;;11.18;69.20
64739;BME280;51175;51.186;0.276;2023-02-02T00:46:48;102283.56;;;11.18;69.00
64739;BME280;51175;51.186;0.276;2023-02-02T00:47:18;102283.56;;;11.18;69.07
64739;BME280;51175;51.186;0.276;2023-02-02T00:47:49;102280.94;;;11.18;68.93
64739;BME280;51175;51.186;0.276;2023-02-02T00:48:19;102281.75;;;11.18;69.10
64739;BME280;51175;51.186;0.276;2023-02-02T00:48:50;102280.94;;;11.18;69.04
64739;BME280;51175;51.186;0.276;2023-02-02T00:49:21;102285.44;;;11.17;69.01
64739;BME280;51175;51.186;0.276;2023-02-02T00:49:51;102280.94;;;11.18;69.16
64739;BME280;51175;51.186;0.276;2023-02-02T00:50:21;102280.13;;;11.17;69.24
64739;BME280;51175;51.186;0.276;2023-02-02T00:50:52;102279.09;;;11.18;69.03
64739;BME280;51175;51.186;0.276;2023-02-02T00:51:23;102273.81;;;11.18;68.94
64739;BME280;51175;51.186;0.276;2023-02-02T00:51:53;102281.75;;;11.18;69.05
64739;BME280;51175;51.186;0.276;2023-02-02T00:52:24;102286.22;;;11.18;69.18
64739;BME280;51175;51.186;0.276;2023-02-02T00:52:54;102280.94;;;11.18;68.95
64739;BME280;51175;51.186;0.276;2023-02-02T00:53:25;102280.94;;;11.18;69.07
64739;BME280;51175;51.186;0.276;2023-02-02T00:53:55;102275.63;;;11.18;69.06
64739;BME280;51175;51.186;0.276;2023-02-02T00:54:26;102278.28;;;11.18;69.05
64739;BME280;51175;51.186;0.276;2023-02-02T00:54:56;102282.56;;;11.19;68.94
64739;BME280;51175;51.186;0.276;2023-02-02T00:55:27;102281.75;;;11.18;69.03
64739;BME280;51175;51.186;0.276;2023-02-02T00:55:57;102273.81;;;11.18;69.12
64739;BME280;51175;51.186;0.276;2023-02-02T00:56:28;102272.22;;;11.17;69.01
64739;BME280;51175;51.186;0.276;2023-02-02T00:56:58;102276.47;;;11.18;69.16
64739;BME280;51175;51.186;0.276;2023-02-02T00:57:29;102278.28;;;11.18;69.22
64739;BME280;51175;51.186;0.276;2023-02-02T00:57:59;102270.13;;;11.20;69.07
64739;BME280;51175;51.186;0.276;2023-02-02T00:58:29;102282.56;;;11.19;69.21
64739;BME280;51175;51.186;0.276;2023-02-02T00:59:00;102275.41;;;11.20;69.20
64739;BME280;51175;51.186;0.276;2023-02-02T00:59:30;102272.00;;;11.19;69.18
64739;BME280;51175;51.186;0.276;2023-02-02T01:00:02;102270.13;;;11.20;69.32
64739;BME280;51175;51.186;0.276;2023-02-02T01:00:32;102273.81;;;11.18;69.03
64739;BME280;51175;51.186;0.276;2023-02-02T01:01:03;102278.06;;;11.20;69.14
64739;BME280;51175;51.186;0.276;2023-02-02T01:01:34;102275.41;;;11.20;69.07
64739;BME280;51175;51.186;0.276;2023-02-02T01:02:04;102273.00;;;11.18;69.16
64739;BME280;51175;51.186;0.276;2023-02-02T01:02:35;102276.47;;;11.18;69.11
64739;BME280;51175;51.186;0.276;2023-02-02T01:03:05;102280.72;;;11.20;69.29
64739;BME280;51175;51.186;0.276;2023-02-02T01:03:36;102276.25;;;11.20;69.19
64739;BME280;51175;51.186;0.276;2023-02-02T01:04:06;102274.63;;;11.19;69.08
64739;BME280;51175;51.186;0.276;2023-02-02T01:04:37;102280.72;;;11.20;69.22
64739;BME280;51175;51.186;0.276;2023-02-02T01:05:09;102278.06;;;11.20;69.11
64739;BME280;51175;51.186;0.276;2023-02-02T01:05:40;102278.06;;;11.20;69.30
64739;BME280;51175;51.186;0.276;2023-02-02T01:06:10;102277.28;;;11.19;69.19
64739;BME280;51175;51.186;0.276;2023-02-02T01:06:40;102265.66;;;11.20;69.05
64739;BME280;51175;51.186;0.276;2023-02-02T01:07:11;102272.00;;;11.19;69.06
64739;BME280;51175;51.186;0.276;2023-02-02T01:07:41;102273.81;;;11.18;69.10
64739;BME280;51175;51.186;0.276;2023-02-02T01:08:12;102277.28;;;11.19;69.10
64739;BME280;51175;51.186;0.276;2023-02-02T01:08:42;102270.13;;;11.20;68.95
64739;BME280;51175;51.186;0.276;2023-02-02T01:09:13;102270.13;;;11.20;69.35
64739;BME280;51175;51.186;0.276;2023-02-02T01:09:43;102274.63;;;11.19;69.11
64739;BME280;51175;51.186;0.276;2023-02-02T01:10:16;102270.13;;;11.20;69.10
64739;BME280;51175;51.186;0.276;2023-02-02T01:10:47;102263.25;;;11.18;69.01
64739;BME280;51175;51.186;0.276;2023-02-02T01:11:18;102270.94;;;11.20;69.30
64739;BME280;51175;51.186;0.276;2023-02-02T01:11:48;102268.31;;;11.20;69.18
64739;BME280;51175;51.186;0.276;2023-02-02T01:12:19;102264.84;;;11.20;69.19
64739;BME280;51175;51.186;0.276;2023-02-02T01:12:49;102267.47;;;11.20;69.17
64739;BME280;51175;51.186;0.276;2023-02-02T01:13:19;102277.84;;;11.21;69.12
64739;BME280;51175;51.186;0.276;2023-02-02T01:13:50;102276.25;;;11.20;69.21
64739;BME280;51175;51.186;0.276;2023-02-02T01:14:21;102269.13;;;11.21;68.94
64739;BME280;51175;51.186;0.276;2023-02-02T01:14:51;102270.94;;;11.20;69.16
64739;BME280;51175;51.186;0.276;2023-02-02T01:15:22;102267.47;;;11.20;69.05
64739;BME280;51175;51.186;0.276;2023-02-02T01:15:57;102277.06;;;11.21;68.90
64739;BME280;51175;51.186;0.276;2023-02-02T01:16:28;102269.34;;;11.19;68.92
64739;BME280;51175;51.186;0.276;2023-02-02T01:16:58;102276.25;;;11.20;68.92
64739;BME280;51175;51.186;0.276;2023-02-02T01:17:29;102278.06;;;11.20;69.18
64739;BME280;51175;51.186;0.276;2023-02-02T01:17:59;102278.88;;;11.20;69.21
64739;BME280;51175;51.186;0.276;2023-02-02T01:18:30;102276.25;;;11.20;69.10
64739;BME280;51175;51.186;0.276;2023-02-02T01:19:01;102272.78;;;11.20;69.05
64739;BME280;51175;51.186;0.276;2023-02-02T01:19:31;102270.13;;;11.20;69.18
64739;BME280;51175;51.186;0.276;2023-02-02T01:20:03;102274.63;;;11.19;69.04
64739;BME280;51175;51.186;0.276;2023-02-02T01:20:33;102273.59;;;11.20;69.00
64739;BME280;51175;51.186;0.276;2023-02-02T01:21:06;102282.34;;;11.21;69.19
64739;BME280;51175;51.186;0.276;2023-02-02T01:21:37;102282.34;;;11.21;68.96
64739;BME280;51175;51.186;0.276;2023-02-02T01:22:08;102278.88;;;11.20;68.98
64739;BME280;51175;51.186;0.276;2023-02-02T01:22:38;102278.88;;;11.20;69.02
64739;BME280;51175;51.186;0.276;2023-02-02T01:23:09;102283.34;;;11.20;69.15
64739;BME280;51175;51.186;0.276;2023-02-02T01:23:39;102278.88;;;11.20;69.19
64739;BME280;51175;51.186;0.276;2023-02-02T01:24:10;102279.91;;;11.19;69.03
64739;BME280;51175;51.186;0.276;2023-02-02T01:24:40;102284.16;;;11.20;69.19
64739;BME280;51175;51.186;0.276;2023-02-02T01:25:11;102275.41;;;11.20;69.20
64739;BME280;51175;51.186;0.276;2023-02-02T01:25:41;102285.00;;;11.21;69.07
64739;BME280;51175;51.186;0.276;2023-02-02T01:26:15;102270.94;;;11.20;69.04
64739;BME280;51175;51.186;0.276;2023-02-02T01:26:46;102278.06;;;11.20;69.04
64739;BME280;51175;51.186;0.276;2023-02-02T01:27:16;102280.72;;;11.20;68.95
64739;BME280;51175;51.186;0.276;2023-02-02T01:27:47;102285.78;;;11.21;69.15
64739;BME280;51175;51.186;0.276;2023-02-02T01:28:17;102286.81;;;11.20;69.14
64739;BME280;51175;51.186;0.276;2023-02-02T01:28:48;102285.00;;;11.21;69.20
64739;BME280;51175;51.186;0.276;2023-02-02T01:29:18;102285.00;;;11.21;69.07
64739;BME280;51175;51.186;0.276;2023-02-02T01:29:48;102283.13;;;11.21;69.26
64739;BME280;51175;51.186;0.276;2023-02-02T01:30:19;102289.47;;;11.20;69.21
64739;BME280;51175;51.186;0.276;2023-02-02T01:30:50;102284.16;;;11.20;69.02
64739;BME280;51175;51.186;0.276;2023-02-02T01:31:20;102286.81;;;11.20;69.33
64739;BME280;51175;51.186;0.276;2023-02-02T01:31:51;102281.53;;;11.20;69.32
64739;BME280;51175;51.186;0.276;2023-02-02T01:32:22;102285.00;;;11.21;68.97
64739;BME280;51175;51.186;0.276;2023-02-02T01:32:52;102292.94;;;11.21;69.19
64739;BME280;51175;51.186;0.276;2023-02-02T01:33:23;102290.06;;;11.22;69.16
64739;BME280;51175;51.186;0.276;2023-02-02T01:33:54;102288.44;;;11.21;69.16
64739;BME280;51175;51.186;0.276;2023-02-02T01:34:24;102283.94;;;11.22;69.20
64739;BME280;51175;51.186;0.276;2023-02-02T01:34:55;102290.28;;;11.21;68.92
64739;BME280;51175;51.186;0.276;2023-02-02T01:35:25;102281.31;;;11.22;69.02
64739;BME280;51175;51.186;0.276;2023-02-02T01:35:56;102289.47;;;11.20;69.04
64739;BME280;51175;51.186;0.276;2023-02-02T01:36:26;102282.34;;;11.21;69.05
64739;BME280;51175;51.186;0.276;2023-02-02T01:36:56;102290.28;;;11.21;69.07
64739;BME280;51175;51.186;0.276;2023-02-02T01:37:27;102287.63;;;11.21;69.08
64739;BME280;51175;51.186;0.276;2023-02-02T01:37:57;102292.94;;;11.21;69.19
64739;BME280;51175;51.186;0.276;2023-02-02T01:38:27;102287.63;;;11.21;69.03
64739;BME280;51175;51.186;0.276;2023-02-02T01:38:58;102288.44;;;11.21;69.23
64739;BME280;51175;51.186;0.276;2023-02-02T01:39:28;102285.78;;;11.21;69.07
64739;BME280;51175;51.186;0.276;2023-02-02T01:39:58;102289.25;;;11.22;68.97
64739;BME280;51175;51.186;0.276;2023-02-02T01:40:29;102283.13;;;11.21;69.01
64739;BME280;51175;51.186;0.276;2023-02-02T01:40:59;102285.78;;;11.21;69.25
64739;BME280;51175;51.186;0.276;2023-02-02T01:41:30;102284.78;;;11.22;69.16
64739;BME280;51175;51.186;0.276;2023-02-02T01:42:01;102288.44;;;11.21;69.18
64739;BME280;51175;51.186;0.276;2023-02-02T01:42:31;102280.50;;;11.21;69.25
64739;BME280;51175;51.186;0.276;2023-02-02T01:43:02;102287.63;;;11.21;69.19
64739;BME280;51175;51.186;0.276;2023-02-02T01:45:03;102283.13;;;11.21;69.12
64739;BME280;51175;51.186;0.276;2023-02-02T01:45:33;102282.34;;;11.21;69.18
64739;BME280;51175;51.186;0.276;2023-02-02T01:46:04;102290.28;;;11.21;69.02
64739;BME280;51175;51.186;0.276;2023-02-02T01:46:35;102286.81;;;11.20;69.13
64739;BME280;51175;51.186;0.276;2023-02-02T01:47:06;102286.81;;;11.20;69.19
64739;BME280;51175;51.186;0.276;2023-02-02T01:47:42;102279.91;;;11.19;69.05
64739;BME280;51175;51.186;0.276;2023-02-02T01:48:14;102292.09;;;11.20;69.04
64739;BME280;51175;51.186;0.276;2023-02-02T01:49:26;102289.25;;;11.22;69.17
64739;BME280;51175;51.186;0.276;2023-02-02T01:49:57;102293.94;;;11.20;69.30
64739;BME280;51175;51.186;0.276;2023-02-02T01:50:30;102288.66;;;11.20;69.28
64739;BME280;51175;51.186;0.276;2023-02-02T01:51:06;102289.47;;;11.20;69.03
64739;BME280;51175;51.186;0.276;2023-02-02T01:52:16;102290.50;;;11.19;69.10
64739;BME280;51175;51.186;0.276;2023-02-02T01:52:50;102292.31;;;11.18;69.46
64739;BME280;51175;51.186;0.276;2023-02-02T01:53:22;102289.69;;;11.18;69.07
64739;BME280;51175;51.186;0.276;2023-02-02T01:53:55;102295.78;;;11.19;69.06
64739;BME280;51175;51.186;0.276;2023-02-02T01:55:03;102293.94;;;11.20;69.37
64739;BME280;51175;51.186;0.276;2023-02-02T01:55:38;102295.78;;;11.19;69.23
64739;BME280;51175;51.186;0.276;2023-02-02T01:56:13;102295.78;;;11.19;69.15
64739;BME280;51175;51.186;0.276;2023-02-02T01:56:50;102292.09;;;11.20;69.33
64739;BME280;51175;51.186;0.276;2023-02-02T01:57:38;102289.69;;;11.18;69.36
64739;BME280;51175;51.186;0.276;2023-02-02T01:58:13;102289.69;;;11.18;69.23
64739;BME280;51175;51.186;0.276;2023-02-02T01:58:45;102296.78;;;11.18;69.28
64739;BME280;51175;51.186;0.276;2023-02-02T01:59:16;102301.09;;;11.19;69.41
64739;BME280;51175;51.186;0.276;2023-02-02T01:59:48;102295.78;;;11.19;69.26
64739;BME280;51175;51.186;0.276;2023-02-02T02:00:18;102301.09;;;11.19;69.34
64739;BME280;51175;51.186;0.276;2023-02-02T02:00:54;102297.63;;;11.18;69.29
64739;BME280;51175;51.186;0.276;2023-02-02T02:01:25;102297.63;;;11.18;69.38
64739;BME280;51175;51.186;0.276;2023-02-02T02:01:56;102297.63;;;11.18;69.29
64739;BME280;51175;51.186;0.276;2023-02-02T02:02:28;102290.50;;;11.19;69.17
64739;BME280;51175;51.186;0.276;2023-02-02T02:03:05;102294.16;;;11.18;69.35
64739;BME280;51175;51.186;0.276;2023-02-02T02:03:37;102293.94;;;11.20;69.45
64739;BME280;51175;51.186;0.276;2023-02-02T02:04:07;102291.50;;;11.18;69.35
64739;BME280;51175;51.186;0.276;2023-02-02T02:04:38;102289.69;;;11.18;69.31
64739;BME280;51175;51.186;0.276;2023-02-02T02:05:10;102287.84;;;11.19;69.42
64739;BME280;51175;51.186;0.276;2023-02-02T02:05:44;102290.50;;;11.19;69.43
64739;BME280;51175;51.186;0.276;2023-02-02T02:06:17;102290.50;;;11.19;69.39
64739;BME280;51175;51.186;0.276;2023-02-02T02:06:48;102291.28;;;11.20;69.15
64739;BME280;51175;51.186;0.276;2023-02-02T02:07:21;102285.22;;;11.19;69.41
64739;BME280;51175;51.186;0.276;2023-02-02T02:07:55;102285.22;;;11.19;69.43
64739;BME280;51175;51.186;0.276;2023-02-02T02:08:34;102286.00;;;11.20;69.22
64739;BME280;51175;51.186;0.276;2023-02-02T02:09:05;102289.47;;;11.20;69.43
64739;BME280;51175;51.186;0.276;2023-02-02T02:09:36;102288.66;;;11.20;69.40
64739;BME280;51175;51.186;0.276;2023-02-02T02:10:07;102286.81;;;11.20;69.46
64739;BME280;51175;51.186;0.276;2023-02-02T02:10:37;102285.22;;;11.19;69.44
64739;BME280;51175;51.186;0.276;2023-02-02T02:11:08;102286.81;;;11.20;69.35
64739;BME280;51175;51.186;0.276;2023-02-02T02:11:38;102288.66;;;11.20;69.52
64739;BME280;51175;51.186;0.276;2023-02-02T02:12:11;102292.09;;;11.20;69.33
64739;BME280;51175;51.186;0.276;2023-02-02T02:12:46;102287.63;;;11.21;69.16
64739;BME280;51175;51.186;0.276;2023-02-02T02:13:18;102289.47;;;11.20;69.17
64739;BME280;51175;51.186;0.276;2023-02-02T02:13:52;102288.44;;;11.21;69.30
64739;BME280;51175;51.186;0.276;2023-02-02T02:14:47;102287.63;;;11.21;69.43
64739;BME280;51175;51.186;0.276;2023-02-02T02:15:45;102283.34;;;11.20;69.19
64739;BME280;51175;51.186;0.276;2023-02-02T02:17:19;102280.72;;;11.20;69.39
64739;BME280;51175;51.186;0.276;2023-02-02T02:21:24;102283.56;;;11.18;69.31
64739;BME280;51175;51.186;0.276;2023-02-02T02:22:17;102283.78;;;11.16;69.19
64739;BME280;51175;51.186;0.276;2023-02-02T02:24:03;102286.66;;;11.15;69.35
64739;BME280;51175;51.186;0.276;2023-02-02T02:25:21;102285.88;;;11.14;69.29
64739;BME280;51175;51.186;0.276;2023-02-02T02:27:25;102285.28;;;11.12;69.42
64739;BME280;51175;51.186;0.276;2023-02-02T02:28:41;102283.66;;;11.11;69.39
64739;BME280;51175;51.186;0.276;2023-02-02T02:30:37;102279.38;;;11.10;69.70
64739;BME280;51175;51.186;0.276;2023-02-02T02:33:45;102272.69;;;11.08;69.71
64739;BME280;51175;51.186;0.276;2023-02-02T02:35:41;102273.53;;;11.08;69.80
64739;BME280;51175;51.186;0.276;2023-02-02T02:36:24;102273.75;;;11.07;69.76
64739;BME280;51175;51.186;0.276;2023-02-02T02:37:17;102271.88;;;11.07;69.74
64739;BME280;51175;51.186;0.276;2023-02-02T02:37:58;102273.53;;;11.08;69.92
64739;BME280;51175;51.186;0.276;2023-02-02T02:39:14;102272.69;;;11.08;69.74
64739;BME280;51175;51.186;0.276;2023-02-02T02:39:54;102272.69;;;11.08;69.76
64739;BME280;51175;51.186;0.276;2023-02-02T02:40:45;102275.34;;;11.08;69.60
64739;BME280;51175;51.186;0.276;2023-02-02T02:41:22;102273.53;;;11.08;69.65
64739;BME280;51175;51.186;0.276;2023-02-02T02:41:59;102273.53;;;11.08;69.85
64739;BME280;51175;51.186;0.276;2023-02-02T02:42:35;102267.41;;;11.08;69.93
64739;BME280;51175;51.186;0.276;2023-02-02T02:43:17;102269.03;;;11.09;69.72
64739;BME280;51175;51.186;0.276;2023-02-02T02:43:56;102268.22;;;11.08;69.72
64739;BME280;51175;51.186;0.276;2023-02-02T02:44:30;102267.19;;;11.09;69.80
64739;BME280;51175;51.186;0.276;2023-02-02T02:45:03;102275.34;;;11.08;69.73
64739;BME280;51175;51.186;0.276;2023-02-02T02:45:35;102277.78;;;11.09;69.91
64739;BME280;51175;51.186;0.276;2023-02-02T02:46:07;102268.00;;;11.10;69.72
64739;BME280;51175;51.186;0.276;2023-02-02T02:46:38;102268.81;;;11.10;69.87
64739;BME280;51175;51.186;0.276;2023-02-02T02:47:09;102272.47;;;11.09;69.80
64739;BME280;51175;51.186;0.276;2023-02-02T02:47:40;102280.19;;;11.11;69.83
64739;BME280;51175;51.186;0.276;2023-02-02T02:48:12;102272.25;;;11.11;69.67
64739;BME280;51175;51.186;0.276;2023-02-02T02:48:44;102281.03;;;11.11;69.68
64739;BME280;51175;51.186;0.276;2023-02-02T02:49:15;102271.22;;;11.12;69.83
64739;BME280;51175;51.186;0.276;2023-02-02T02:49:48;102278.16;;;11.13;69.78
64739;BME280;51175;51.186;0.276;2023-02-02T02:50:18;102273.88;;;11.12;69.67
64739;BME280;51175;51.186;0.276;2023-02-02T02:50:49;102275.50;;;11.13;69.82
64739;BME280;51175;51.186;0.276;2023-02-02T02:51:48;102276.28;;;11.13;69.76
64739;BME280;51175;51.186;0.276;2023-02-02T02:52:19;102276.28;;;11.13;69.43
64739;BME280;51175;51.186;0.276;2023-02-02T02:53:04;102279.75;;;11.14;69.55
64739;BME280;51175;51.186;0.276;2023-02-02T02:53:36;102277.13;;;11.14;69.55
64739;BME280;51175;51.186;0.276;2023-02-02T02:54:07;102277.13;;;11.14;69.75
64739;BME280;51175;51.186;0.276;2023-02-02T02:54:54;102279.75;;;11.14;69.58
64739;BME280;51175;51.186;0.276;2023-02-02T02:55:27;102276.28;;;11.13;69.66
64739;BME280;51175;51.186;0.276;2023-02-02T02:56:11;102277.13;;;11.14;69.60
64739;BME280;51175;51.186;0.276;2023-02-02T02:56:49;102277.13;;;11.14;69.65
64739;BME280;51175;51.186;0.276;2023-02-02T02:58:09;102275.50;;;11.13;69.57
64739;BME280;51175;51.186;0.276;2023-02-02T03:01:16;102284.22;;;11.13;69.77
64739;BME280;51175;51.186;0.276;2023-02-02T03:05:51;102273.09;;;11.11;69.65
64739;BME280;51175;51.186;0.276;2023-02-02T03:06:33;102279.38;;;11.10;69.44
64739;BME280;51175;51.186;0.276;2023-02-02T03:07:10;102274.09;;;11.10;69.56
64739;BME280;51175;51.186;0.276;2023-02-02T03:09:07;102271.44;;;11.10;69.59
64739;BME280;51175;51.186;0.276;2023-02-02T03:09:42;102270.66;;;11.10;69.75
64739;BME280;51175;51.186;0.276;2023-02-02T03:10:17;102268.00;;;11.10;69.80
64739;BME280;51175;51.186;0.276;2023-02-02T03:10:49;102268.00;;;11.10;69.80
64739;BME280;51175;51.186;0.276;2023-02-02T03:11:21;102270.44;;;11.11;69.64
64739;BME280;51175;51.186;0.276;2023-02-02T03:11:53;102266.16;;;11.10;69.60
64739;BME280;51175;51.186;0.276;2023-02-02T03:12:24;102261.91;;;11.09;69.69
64739;BME280;51175;51.186;0.276;2023-02-02T03:12:55;102265.38;;;11.10;69.84
64739;BME280;51175;51.186;0.276;2023-02-02T03:13:26;102261.91;;;11.09;69.72
64739;BME280;51175;51.186;0.276;2023-02-02T03:13:57;102260.09;;;11.10;69.79
64739;BME280;51175;51.186;0.276;2023-02-02T03:14:27;102263.50;;;11.10;69.77
64739;BME280;51175;51.186;0.276;2023-02-02T03:14:58;102264.34;;;11.11;69.66
64739;BME280;51175;51.186;0.276;2023-02-02T03:15:28;102260.66;;;11.12;69.67
64739;BME280;51175;51.186;0.276;2023-02-02T03:15:59;102267.78;;;11.11;69.72
64739;BME280;51175;51.186;0.276;2023-02-02T03:16:29;102268.59;;;11.12;69.71